FIN1HF EFHK-EPWA
Flight info
| Callsign | FIN1HF |
|---|---|
| Flight time | N/A |
| Altitude | 38000 |
| Route | KOIVU DCT LUTAL DCT BERIL DCT NAPOT DCT SUWGI DCT NORNO DCT BULEP DCT XESNA DCT GERVI DCT NEPOX |
| Aircraft | A319/M-SDE1E2E3FGIJ1M1RWXYZ/LB1 |
Departure
| Time | 2026-04-20 19:01 |
|---|---|
| Airport | Helsinki Vantaa Airport (EFHK) |
Arrival
| Time | N/A |
|---|---|
| Airport | Warsaw Chopin Airport (EPWA) |
| Time | Latitude | Longitude | Altitude | Speed | Heading |
|---|---|---|---|---|---|
| 2026-04-20 18:35 | 60.31941 | 24.96687 | 167 ft | 0 kts | 137° |
| 2026-04-20 18:49 | 60.31951 | 24.96669 | 167 ft | 4 kts | 139° |
| 2026-04-20 18:49 | 60.31972 | 24.96636 | 167 ft | 4 kts | 155° |
| 2026-04-20 18:50 | 60.31993 | 24.96628 | 167 ft | 3 kts | 221° |
| 2026-04-20 18:50 | 60.31996 | 24.96633 | 167 ft | 0 kts | 227° |
| 2026-04-20 18:53 | 60.31995 | 24.96632 | 167 ft | 1 kts | 227° |
| 2026-04-20 18:53 | 60.31979 | 24.96598 | 167 ft | 6 kts | 227° |
| 2026-04-20 18:54 | 60.31946 | 24.96523 | 167 ft | 8 kts | 227° |
| 2026-04-20 18:54 | 60.31906 | 24.96435 | 167 ft | 9 kts | 227° |
| 2026-04-20 18:54 | 60.31863 | 24.96334 | 167 ft | 10 kts | 237° |
| 2026-04-20 18:54 | 60.31856 | 24.96196 | 167 ft | 11 kts | 281° |
| 2026-04-20 18:55 | 60.31896 | 24.96086 | 167 ft | 9 kts | 316° |
| 2026-04-20 18:55 | 60.31909 | 24.96061 | 167 ft | 0 kts | 317° |
| 2026-04-20 18:56 | 60.31920 | 24.96039 | 168 ft | 5 kts | 312° |
| 2026-04-20 18:56 | 60.31926 | 24.95965 | 169 ft | 5 kts | 253° |
| 2026-04-20 18:56 | 60.31901 | 24.95899 | 170 ft | 8 kts | 228° |
| 2026-04-20 18:56 | 60.31842 | 24.95769 | 169 ft | 18 kts | 227° |
| 2026-04-20 18:57 | 60.31756 | 24.95579 | 170 ft | 18 kts | 227° |
| 2026-04-20 18:57 | 60.31670 | 24.95389 | 170 ft | 19 kts | 228° |
| 2026-04-20 18:57 | 60.31576 | 24.95183 | 170 ft | 20 kts | 227° |
| 2026-04-20 18:57 | 60.31477 | 24.94964 | 168 ft | 22 kts | 227° |
| 2026-04-20 18:58 | 60.31365 | 24.94718 | 163 ft | 26 kts | 227° |
| 2026-04-20 18:58 | 60.31239 | 24.94439 | 159 ft | 28 kts | 227° |
| 2026-04-20 18:58 | 60.31107 | 24.94149 | 157 ft | 29 kts | 227° |
| 2026-04-20 18:58 | 60.31039 | 24.93980 | 158 ft | 10 kts | 248° |
| 2026-04-20 18:59 | 60.31045 | 24.93839 | 159 ft | 11 kts | 294° |
| 2026-04-20 18:59 | 60.31098 | 24.93726 | 158 ft | 13 kts | 321° |
| 2026-04-20 18:59 | 60.31149 | 24.93681 | 158 ft | 5 kts | 36° |
| 2026-04-20 18:59 | 60.31161 | 24.93706 | 158 ft | 0 kts | 46° |
| 2026-04-20 19:00 | 60.31161 | 24.93707 | 158 ft | 0 kts | 46° |
| 2026-04-20 19:00 | 60.31274 | 24.93956 | 159 ft | 65 kts | 47° |
| 2026-04-20 19:00 | 60.31741 | 24.94984 | 172 ft | 132 kts | 47° |
| 2026-04-20 19:01 | 60.32457 | 24.96576 | 529 ft | 157 kts | 47° |
| 2026-04-20 19:01 | 60.33186 | 24.98214 | 1365 ft | 155 kts | 46° |
| 2026-04-20 19:01 | 60.33914 | 24.99816 | 2233 ft | 153 kts | 46° |
| 2026-04-20 19:01 | 60.34622 | 25.01376 | 3069 ft | 152 kts | 46° |
| 2026-04-20 19:02 | 60.35348 | 25.02975 | 3750 ft | 161 kts | 46° |
| 2026-04-20 19:02 | 60.36160 | 25.04760 | 4147 ft | 184 kts | 47° |
| 2026-04-20 19:02 | 60.37094 | 25.06819 | 4607 ft | 210 kts | 47° |
| 2026-04-20 19:02 | 60.38114 | 25.09173 | 5176 ft | 235 kts | 54° |
| 2026-04-20 19:03 | 60.38812 | 25.12280 | 5946 ft | 251 kts | 75° |
| 2026-04-20 19:03 | 60.38894 | 25.15804 | 6941 ft | 260 kts | 96° |
| 2026-04-20 19:03 | 60.38304 | 25.19304 | 7933 ft | 268 kts | 111° |
| 2026-04-20 19:03 | 60.37495 | 25.22727 | 8962 ft | 270 kts | 111° |
| 2026-04-20 19:04 | 60.36679 | 25.26171 | 9969 ft | 273 kts | 111° |
| 2026-04-20 19:04 | 60.35834 | 25.29669 | 10709 ft | 287 kts | 115° |
| 2026-04-20 19:04 | 60.34442 | 25.32866 | 11072 ft | 321 kts | 140° |
| 2026-04-20 19:04 | 60.32296 | 25.34540 | 11756 ft | 344 kts | 169° |
| 2026-04-20 19:05 | 60.29917 | 25.34012 | 12561 ft | 359 kts | 197° |
| 2026-04-20 19:05 | 60.27674 | 25.31684 | 13417 ft | 366 kts | 211° |
| 2026-04-20 19:05 | 60.25577 | 25.28691 | 14228 ft | 372 kts | 217° |
| 2026-04-20 19:05 | 60.24232 | 25.26512 | 14705 ft | 375 kts | 218° |
| 2026-04-20 19:06 | 60.21559 | 25.21984 | 15662 ft | 381 kts | 219° |
| 2026-04-20 19:06 | 60.19497 | 25.18551 | 16378 ft | 385 kts | 218° |
| 2026-04-20 19:06 | 60.18106 | 25.16312 | 16844 ft | 388 kts | 217° |
| 2026-04-20 19:06 | 60.15958 | 25.12971 | 17545 ft | 392 kts | 216° |
| 2026-04-20 19:07 | 60.13767 | 25.09666 | 18256 ft | 397 kts | 215° |
| 2026-04-20 19:07 | 60.11507 | 25.06326 | 18933 ft | 401 kts | 214° |
| 2026-04-20 19:07 | 60.09271 | 25.03047 | 19540 ft | 405 kts | 214° |
| 2026-04-20 19:07 | 60.06979 | 24.99693 | 20160 ft | 409 kts | 214° |
| 2026-04-20 19:08 | 60.04666 | 24.96297 | 20747 ft | 413 kts | 214° |
| 2026-04-20 19:08 | 59.99984 | 24.89378 | 21940 ft | 422 kts | 214° |
| 2026-04-20 19:08 | 59.97608 | 24.85862 | 22525 ft | 427 kts | 214° |
| 2026-04-20 19:09 | 59.95235 | 24.82356 | 23103 ft | 431 kts | 214° |
| 2026-04-20 19:09 | 59.92800 | 24.78761 | 23683 ft | 436 kts | 214° |
| 2026-04-20 19:09 | 59.90345 | 24.75149 | 24185 ft | 440 kts | 214° |
| 2026-04-20 19:09 | 59.87899 | 24.71560 | 24681 ft | 443 kts | 213° |
| 2026-04-20 19:10 | 59.85285 | 24.68304 | 25161 ft | 442 kts | 203° |
| 2026-04-20 19:10 | 59.82455 | 24.65938 | 25649 ft | 440 kts | 193° |
| 2026-04-20 19:10 | 59.79492 | 24.64478 | 26104 ft | 438 kts | 186° |